createdAt,value
2018-05-27T00:01:33.442Z,19.67
2018-05-27T00:03:59.726Z,15.40
2018-05-27T00:06:26.026Z,15.70
2018-05-27T00:08:52.289Z,15.37
2018-05-27T00:11:18.585Z,17.50
2018-05-27T00:13:44.837Z,15.77
2018-05-27T00:16:11.085Z,15.83
2018-05-27T00:18:37.348Z,15.40
2018-05-27T00:21:03.676Z,16.93
2018-05-27T00:23:30.886Z,15.47
2018-05-27T00:25:57.154Z,19.90
2018-05-27T00:28:23.426Z,16.93
2018-05-27T00:30:50.455Z,16.00
2018-05-27T00:33:17.509Z,16.40
2018-05-27T00:35:43.771Z,18.20
2018-05-27T00:38:10.053Z,16.53
2018-05-27T00:40:36.338Z,16.80
2018-05-27T00:43:02.588Z,16.57
2018-05-27T00:45:28.865Z,16.27
2018-05-27T00:47:55.146Z,16.93
2018-05-27T00:50:21.369Z,17.00
2018-05-27T00:52:47.630Z,17.83
2018-05-27T00:55:13.916Z,16.00
2018-05-27T00:57:40.245Z,15.87
2018-05-27T01:00:06.559Z,17.30
2018-05-27T01:02:33.581Z,16.10
2018-05-27T01:04:59.846Z,15.20
2018-05-27T01:07:26.097Z,15.53
2018-05-27T01:09:52.392Z,25.63
2018-05-27T01:12:19.408Z,15.43
2018-05-27T01:14:45.690Z,18.60
2018-05-27T01:17:11.989Z,15.97
2018-05-27T01:19:39.021Z,16.63
2018-05-27T01:22:05.262Z,17.73
2018-05-27T01:24:31.593Z,15.30
2018-05-27T01:26:57.871Z,20.20
2018-05-27T01:29:24.188Z,15.67
2018-05-27T01:31:50.470Z,15.20
2018-05-27T01:34:16.783Z,14.40
2018-05-27T01:36:43.072Z,14.27
2018-05-27T01:39:09.391Z,14.60
2018-05-27T01:41:36.407Z,16.40
2018-05-27T01:44:02.687Z,15.43
2018-05-27T01:46:28.962Z,16.30
2018-05-27T01:48:55.244Z,15.03
2018-05-27T01:51:21.515Z,15.13
2018-05-27T01:53:47.783Z,15.17
2018-05-27T01:56:14.801Z,14.50
2018-05-27T01:58:41.103Z,16.70
2018-05-27T02:01:07.368Z,15.17
2018-05-27T02:03:33.661Z,16.93
2018-05-27T02:05:59.976Z,15.50
2018-05-27T02:08:26.258Z,15.47
2018-05-27T02:10:53.193Z,16.77
2018-05-27T02:13:19.498Z,17.00
2018-05-27T02:15:45.802Z,15.13
2018-05-27T02:18:12.837Z,16.50
2018-05-27T02:20:39.878Z,16.23
2018-05-27T02:23:06.209Z,16.37
2018-05-27T02:25:33.223Z,16.03
2018-05-27T02:27:59.484Z,16.47
2018-05-27T02:30:25.747Z,19.10
2018-05-27T02:32:52.018Z,15.80
2018-05-27T02:35:18.342Z,23.07
2018-05-27T02:37:44.649Z,17.37
2018-05-27T02:40:10.923Z,17.80
2018-05-27T02:42:37.241Z,18.10
2018-05-27T02:45:03.506Z,18.10
2018-05-27T02:47:30.519Z,15.57
2018-05-27T02:49:56.810Z,25.43
2018-05-27T02:52:23.076Z,16.10
2018-05-27T02:54:49.379Z,15.67
2018-05-27T02:57:15.702Z,21.53
2018-05-27T02:59:41.967Z,19.83
2018-05-27T03:02:08.211Z,18.83
2018-05-27T03:04:34.481Z,18.63
2018-05-27T03:07:01.546Z,17.33
2018-05-27T03:09:27.804Z,18.67
2018-05-27T03:11:54.090Z,16.50
2018-05-27T03:14:20.342Z,18.13
2018-05-27T03:16:46.599Z,18.10
2018-05-27T03:19:12.911Z,23.27
2018-05-27T03:21:40.892Z,15.87
2018-05-27T03:24:07.154Z,22.33
2018-05-27T03:26:33.518Z,15.13
2018-05-27T03:28:59.773Z,15.43
2018-05-27T03:31:26.032Z,17.57
2018-05-27T03:33:52.276Z,20.30
2018-05-27T03:36:18.515Z,16.33
2018-05-27T03:38:45.576Z,15.30
2018-05-27T03:41:11.872Z,17.23
2018-05-27T03:43:38.136Z,15.63
2018-05-27T03:46:05.146Z,15.73
2018-05-27T03:48:31.465Z,15.90
2018-05-27T03:50:57.737Z,14.17
2018-05-27T03:53:24.751Z,16.00
2018-05-27T03:55:51.043Z,14.70
2018-05-27T03:58:17.338Z,15.63
2018-05-27T04:00:44.423Z,14.83
2018-05-27T04:03:10.717Z,15.20
2018-05-27T04:05:55.726Z,15.07
2018-05-27T04:08:33.206Z,13.63
2018-05-27T04:10:59.550Z,13.53
2018-05-27T04:13:25.902Z,15.43
2018-05-27T04:15:52.177Z,12.50
2018-05-27T04:18:19.335Z,12.30
2018-05-27T04:20:46.346Z,11.67
2018-05-27T04:23:12.603Z,15.10
2018-05-27T04:25:39.644Z,13.53
2018-05-27T04:28:06.646Z,12.97
2018-05-27T04:30:32.880Z,13.17
2018-05-27T04:32:59.169Z,13.07
2018-05-27T04:35:25.481Z,14.17
2018-05-27T04:37:52.524Z,13.27
2018-05-27T04:40:19.547Z,12.43
2018-05-27T04:42:45.842Z,17.27
2018-05-27T04:45:12.107Z,11.47
2018-05-27T04:47:38.365Z,11.50
2018-05-27T04:50:05.457Z,13.47
2018-05-27T04:52:31.751Z,14.97
2018-05-27T04:54:58.795Z,12.40
2018-05-27T04:57:25.906Z,13.07
2018-05-27T04:59:52.198Z,13.83
2018-05-27T05:02:18.502Z,14.13
2018-05-27T05:04:45.524Z,12.50
2018-05-27T05:07:11.849Z,12.00
2018-05-27T05:09:38.858Z,11.70
2018-05-27T05:12:05.137Z,11.90
2018-05-27T05:14:31.417Z,12.27
2018-05-27T05:16:57.708Z,11.77
2018-05-27T05:19:23.950Z,13.80
2018-05-27T05:21:50.962Z,12.27
2018-05-27T05:24:17.293Z,14.90
2018-05-27T05:26:43.592Z,10.97
2018-05-27T05:29:09.886Z,12.00
2018-05-27T05:31:36.940Z,11.13
2018-05-27T05:34:03.987Z,12.27
2018-05-27T05:36:31.017Z,12.20
2018-05-27T05:38:57.322Z,11.30
2018-05-27T05:41:23.598Z,11.20
2018-05-27T05:43:50.610Z,14.50
2018-05-27T05:46:16.883Z,12.90
2018-05-27T05:48:43.932Z,12.10
2018-05-27T05:51:10.258Z,10.40
2018-05-27T05:53:37.249Z,11.33
2018-05-27T05:56:03.544Z,11.70
2018-05-27T05:58:30.527Z,10.87
2018-05-27T06:00:56.811Z,10.77
2018-05-27T06:03:23.152Z,10.63
2018-05-27T06:05:50.160Z,11.50
2018-05-27T06:08:16.430Z,12.17
2018-05-27T06:10:43.472Z,10.60
2018-05-27T06:13:10.520Z,12.73
2018-05-27T06:15:37.520Z,12.50
2018-05-27T06:18:03.796Z,13.53
2018-05-27T06:20:30.815Z,17.23
2018-05-27T06:22:57.141Z,15.20
2018-05-27T06:25:24.401Z,13.67
2018-05-27T06:27:50.720Z,14.63
2018-05-27T06:30:17.015Z,14.80
2018-05-27T06:32:43.298Z,14.20
2018-05-27T06:35:09.576Z,13.83
2018-05-27T06:37:35.836Z,14.13
2018-05-27T06:40:02.133Z,24.37
2018-05-27T06:42:28.497Z,13.17
2018-05-27T06:44:54.797Z,15.33
2018-05-27T06:47:21.066Z,12.30
2018-05-27T06:49:47.344Z,14.33
2018-05-27T06:52:13.653Z,13.10
2018-05-27T06:54:40.652Z,14.20
2018-05-27T06:57:06.963Z,15.60
2018-05-27T06:59:33.245Z,13.13
2018-05-27T07:01:59.519Z,15.77
2018-05-27T07:04:25.882Z,16.47
2018-05-27T07:06:52.128Z,15.03
2018-05-27T07:09:18.527Z,14.80
2018-05-27T07:11:44.821Z,14.30
2018-05-27T07:14:11.879Z,15.00
2018-05-27T07:16:38.927Z,15.90
2018-05-27T07:19:05.183Z,19.90
2018-05-27T07:21:31.544Z,15.97
2018-05-27T07:23:57.854Z,17.10
2018-05-27T07:26:24.136Z,16.83
2018-05-27T07:28:51.192Z,20.27
2018-05-27T07:31:17.471Z,14.83
2018-05-27T07:33:44.522Z,16.27
2018-05-27T07:36:10.815Z,13.53
2018-05-27T07:38:37.162Z,17.40
2018-05-27T07:41:03.482Z,18.43
2018-05-27T07:43:29.727Z,16.87
2018-05-27T07:45:56.011Z,15.47
2018-05-27T07:48:23.058Z,17.40
2018-05-27T07:50:50.093Z,17.70
2018-05-27T07:53:16.490Z,22.10
2018-05-27T07:55:42.776Z,18.83
2018-05-27T07:58:09.839Z,17.87
2018-05-27T08:00:36.177Z,19.53
2018-05-27T08:03:02.537Z,20.83
2018-05-27T08:05:28.939Z,25.87
2018-05-27T08:07:55.289Z,25.00
2018-05-27T08:10:21.615Z,20.00
2018-05-27T08:12:47.947Z,24.33
2018-05-27T08:15:14.242Z,20.63
2018-05-27T08:17:41.299Z,19.87
2018-05-27T08:20:11.469Z,19.37
2018-05-27T08:22:39.796Z,19.13
2018-05-27T08:25:06.887Z,17.97
2018-05-27T08:27:33.842Z,21.60
2018-05-27T08:30:00.146Z,21.43
2018-05-27T08:32:26.419Z,23.97
2018-05-27T08:34:52.704Z,24.43
2018-05-27T08:37:19.011Z,20.77
2018-05-27T08:39:46.107Z,21.60
2018-05-27T08:42:12.423Z,20.33
2018-05-27T08:44:38.818Z,18.00
2018-05-27T08:47:06.193Z,22.43
2018-05-27T08:49:32.593Z,22.43
2018-05-27T08:51:59.121Z,20.87
2018-05-27T08:54:25.412Z,23.20
2018-05-27T08:56:51.783Z,18.87
2018-05-27T08:59:18.220Z,18.40
2018-05-27T09:01:44.513Z,18.90
2018-05-27T09:04:10.912Z,18.53
2018-05-27T09:06:37.950Z,18.77
2018-05-27T09:09:05.010Z,18.40
2018-05-27T09:11:32.069Z,21.63
2018-05-27T09:13:58.353Z,19.17
2018-05-27T09:16:24.623Z,17.47
2018-05-27T09:18:50.938Z,19.17
2018-05-27T09:21:17.956Z,18.07
2018-05-27T09:23:44.298Z,20.37
2018-05-27T09:26:10.586Z,17.10
2018-05-27T09:28:36.907Z,20.27
2018-05-27T09:31:03.219Z,19.50
2018-05-27T09:33:30.283Z,15.73
2018-05-27T09:35:57.763Z,16.73
2018-05-27T09:38:24.078Z,20.83
2018-05-27T09:40:51.246Z,16.13
2018-05-27T09:43:18.256Z,15.80
2018-05-27T09:45:45.295Z,14.10
2018-05-27T09:48:12.482Z,15.27
2018-05-27T09:50:38.849Z,12.80
2018-05-27T09:53:05.916Z,13.70
2018-05-27T09:55:32.179Z,13.93
2018-05-27T09:57:58.489Z,14.10
2018-05-27T10:00:25.514Z,11.33
2018-05-27T10:02:52.077Z,11.27
2018-05-27T10:05:19.155Z,11.53
2018-05-27T10:07:45.432Z,10.60
2018-05-27T10:10:12.034Z,24.00
2018-05-27T10:12:38.319Z,13.73
2018-05-27T10:15:04.685Z,11.20
2018-05-27T10:17:31.004Z,10.67
2018-05-27T10:19:57.353Z,10.87
2018-05-27T10:22:23.673Z,12.20
2018-05-27T10:24:50.004Z,10.07
2018-05-27T10:27:16.294Z,9.83
2018-05-27T10:29:43.311Z,12.97
2018-05-27T10:32:09.764Z,10.03
2018-05-27T10:34:36.212Z,10.93
2018-05-27T10:37:03.264Z,9.80
2018-05-27T10:39:30.327Z,10.90
2018-05-27T10:41:57.374Z,9.50
2018-05-27T10:44:23.857Z,8.63
2018-05-27T10:46:50.112Z,10.17
2018-05-27T10:49:16.454Z,9.33
2018-05-27T10:51:43.474Z,11.00
2018-05-27T10:54:09.794Z,11.63
2018-05-27T10:56:36.120Z,8.57
2018-05-27T10:59:02.571Z,9.30
2018-05-27T11:01:28.842Z,9.53
2018-05-27T11:03:55.154Z,7.93
2018-05-27T11:06:22.195Z,8.23
2018-05-27T11:08:48.488Z,7.67
2018-05-27T11:11:14.805Z,7.10
2018-05-27T11:13:41.101Z,8.87
2018-05-27T11:16:08.121Z,9.27
2018-05-27T11:18:35.283Z,7.97
2018-05-27T11:21:01.593Z,7.43
2018-05-27T11:23:27.899Z,7.63
2018-05-27T11:25:54.172Z,8.13
2018-05-27T11:28:20.429Z,8.50
2018-05-27T11:30:47.514Z,7.40
2018-05-27T11:33:13.803Z,6.80
2018-05-27T11:35:40.828Z,10.63
2018-05-27T11:38:07.136Z,6.73
2018-05-27T11:40:33.414Z,12.10
2018-05-27T11:43:00.452Z,7.03
2018-05-27T11:45:27.490Z,6.37
2018-05-27T11:47:53.774Z,8.67
2018-05-27T11:50:20.042Z,6.90
2018-05-27T11:52:46.331Z,10.00
2018-05-27T11:55:12.669Z,6.50
2018-05-27T11:57:38.945Z,7.27
2018-05-27T12:00:05.290Z,5.67
2018-05-27T12:02:32.417Z,6.27
2018-05-27T12:05:00.230Z,5.73
2018-05-27T12:07:26.522Z,5.00
2018-05-27T12:09:53.518Z,6.10
2018-05-27T12:12:19.810Z,5.53
2018-05-27T12:14:46.829Z,5.17
2018-05-27T12:17:13.129Z,8.73
2018-05-27T12:19:39.890Z,4.33
2018-05-27T12:22:06.231Z,3.77
2018-05-27T12:24:32.526Z,3.33
2018-05-27T12:26:58.831Z,10.20
2018-05-27T12:29:25.889Z,3.90
2018-05-27T12:31:52.948Z,4.47
2018-05-27T12:34:19.231Z,4.20
2018-05-27T12:36:45.625Z,4.20
2018-05-27T12:39:11.922Z,3.90
2018-05-27T12:41:38.250Z,4.80
2018-05-27T12:44:05.244Z,5.20
2018-05-27T12:46:31.664Z,4.87
2018-05-27T12:48:59.003Z,4.17
2018-05-27T12:51:25.288Z,4.50
2018-05-27T12:53:53.546Z,4.93
2018-05-27T12:56:20.873Z,4.23
2018-05-27T12:58:48.243Z,4.30
2018-05-27T13:01:14.602Z,3.70
2018-05-27T13:03:41.983Z,4.40
2018-05-27T13:06:09.069Z,4.27
2018-05-27T13:08:35.364Z,3.53
2018-05-27T13:11:02.495Z,4.57
2018-05-27T13:13:28.865Z,5.27
2018-05-27T13:15:55.169Z,5.30
2018-05-27T13:18:22.215Z,5.43
2018-05-27T13:20:49.368Z,4.20
2018-05-27T13:23:16.461Z,4.00
2018-05-27T13:25:42.734Z,4.17
2018-05-27T13:28:09.882Z,7.13
2018-05-27T13:30:36.262Z,6.33
2018-05-27T13:33:02.632Z,2.87
2018-05-27T13:35:28.930Z,5.23
2018-05-27T13:37:55.268Z,3.27
2018-05-27T13:40:21.535Z,2.80
2018-05-27T13:42:47.939Z,3.30
2018-05-27T13:45:14.203Z,3.10
2018-05-27T13:47:40.590Z,2.60
2018-05-27T13:50:06.887Z,7.47
2018-05-27T13:52:33.955Z,3.90
2018-05-27T13:55:00.246Z,3.33
2018-05-27T13:57:26.508Z,3.23
2018-05-27T13:59:52.799Z,3.03
2018-05-27T14:02:19.155Z,3.80
2018-05-27T14:04:46.236Z,2.63
2018-05-27T14:07:12.556Z,2.83
2018-05-27T14:09:38.904Z,3.87
2018-05-27T14:12:05.161Z,2.60
2018-05-27T14:14:31.464Z,3.83
2018-05-27T14:16:57.734Z,3.33
2018-05-27T14:19:24.129Z,3.60
2018-05-27T14:21:50.547Z,3.90
2018-05-27T14:24:17.959Z,3.83
2018-05-27T14:26:44.963Z,3.97
2018-05-27T14:29:11.194Z,5.20
2018-05-27T14:31:37.466Z,4.70
2018-05-27T14:34:03.854Z,4.80
2018-05-27T14:36:30.191Z,5.50
2018-05-27T14:38:56.542Z,7.20
2018-05-27T14:41:22.999Z,5.30
2018-05-27T14:43:49.381Z,5.43
2018-05-27T14:46:16.751Z,5.03
2018-05-27T14:48:43.050Z,5.97
2018-05-27T14:51:09.388Z,7.23
2018-05-27T14:53:35.714Z,5.93
2018-05-27T14:56:02.022Z,12.27
2018-05-27T14:58:29.139Z,9.00
2018-05-27T15:00:55.518Z,13.03
2018-05-27T15:03:22.609Z,7.40
2018-05-27T15:05:48.972Z,7.17
2018-05-27T15:08:16.288Z,6.43
2018-05-27T15:10:42.641Z,7.13
2018-05-27T15:13:08.941Z,7.30
2018-05-27T15:15:35.294Z,7.20
2018-05-27T15:18:01.605Z,5.97
2018-05-27T15:20:27.993Z,6.47
2018-05-27T15:22:55.046Z,5.17
2018-05-27T15:25:22.090Z,6.27
2018-05-27T15:27:48.492Z,11.10
2018-05-27T15:30:14.842Z,7.23
2018-05-27T15:32:41.268Z,11.00
2018-05-27T15:35:07.872Z,9.93
2018-05-27T15:37:34.247Z,7.17
2018-05-27T15:40:00.647Z,5.90
2018-05-27T15:42:26.996Z,8.17
2018-05-27T15:44:53.314Z,8.53
2018-05-27T15:47:19.630Z,8.47
2018-05-27T15:49:46.017Z,6.90
2018-05-27T15:52:13.200Z,5.73
2018-05-27T15:54:39.593Z,8.57
2018-05-27T15:57:06.017Z,6.37
2018-05-27T15:59:32.342Z,6.63
2018-05-27T16:01:58.753Z,5.97
2018-05-27T16:04:25.041Z,5.60
2018-05-27T16:06:52.131Z,6.17
2018-05-27T16:09:18.458Z,5.83
2018-05-27T16:11:44.829Z,9.03
2018-05-27T16:14:11.213Z,8.57
2018-05-27T16:16:37.615Z,8.80
2018-05-27T16:19:05.719Z,8.20
2018-05-27T16:21:32.176Z,8.40
2018-05-27T16:23:58.496Z,7.23
2018-05-27T16:26:24.864Z,7.73
2018-05-27T16:28:51.274Z,5.60
2018-05-27T16:31:17.609Z,6.53
2018-05-27T16:33:43.914Z,5.60
2018-05-27T16:36:10.279Z,11.33
2018-05-27T16:38:36.582Z,10.87
2018-05-27T16:41:03.128Z,11.37
2018-05-27T16:43:30.682Z,9.17
2018-05-27T16:45:57.000Z,6.37
2018-05-27T16:48:23.337Z,6.10
2018-05-27T16:50:49.771Z,7.07
2018-05-27T16:53:16.147Z,6.07
2018-05-27T16:55:43.947Z,8.27
2018-05-27T16:58:11.124Z,9.33
2018-05-27T17:00:37.508Z,6.70
2018-05-27T17:03:03.840Z,6.73
2018-05-27T17:05:30.196Z,9.80
2018-05-27T17:07:56.535Z,5.80
2018-05-27T17:10:22.883Z,6.70
2018-05-27T17:12:49.285Z,12.20
2018-05-27T17:15:16.553Z,12.10
2018-05-27T17:17:42.913Z,7.00
2018-05-27T17:20:09.269Z,5.47
2018-05-27T17:22:35.684Z,7.37
2018-05-27T17:25:02.053Z,6.67
2018-05-27T17:27:29.095Z,7.90
2018-05-27T17:29:55.402Z,6.50
2018-05-27T17:32:21.755Z,5.83
2018-05-27T17:34:48.159Z,6.73
2018-05-27T17:37:14.552Z,7.53
2018-05-27T17:39:41.640Z,7.53
2018-05-27T17:42:07.992Z,6.90
2018-05-27T17:44:35.178Z,5.43
2018-05-27T17:47:02.305Z,8.83
2018-05-27T17:49:28.600Z,6.53
2018-05-27T17:51:54.965Z,7.20
2018-05-27T17:54:22.041Z,7.00
2018-05-27T17:56:48.433Z,7.50
2018-05-27T17:59:14.780Z,8.03
2018-05-27T18:01:41.366Z,10.60
2018-05-27T18:04:07.723Z,7.60
2018-05-27T18:06:34.069Z,10.43
2018-05-27T18:09:00.405Z,7.57
2018-05-27T18:11:26.758Z,7.70
2018-05-27T18:13:53.882Z,9.10
2018-05-27T18:16:21.689Z,10.10
2018-05-27T18:18:49.004Z,8.73
2018-05-27T18:21:15.378Z,9.23
2018-05-27T18:23:41.722Z,8.47
2018-05-27T18:26:08.293Z,9.37
2018-05-27T18:28:34.711Z,8.80
2018-05-27T18:31:01.069Z,10.30
2018-05-27T18:33:27.369Z,8.60
2018-05-27T18:35:53.712Z,8.70
2018-05-27T18:38:20.061Z,8.33
2018-05-27T18:40:46.557Z,9.50
2018-05-27T18:43:13.993Z,11.10
2018-05-27T18:45:40.988Z,8.90
2018-05-27T18:48:07.634Z,9.20
2018-05-27T18:50:34.051Z,9.20
2018-05-27T18:53:00.641Z,9.50
2018-05-27T18:55:27.766Z,12.47
2018-05-27T18:57:54.292Z,10.20
2018-05-27T19:00:20.750Z,11.97
2018-05-27T19:02:47.189Z,12.50
2018-05-27T19:05:14.359Z,15.17
2018-05-27T19:07:40.749Z,14.07
2018-05-27T19:10:07.120Z,11.47
2018-05-27T19:12:35.193Z,14.97
2018-05-27T19:15:01.664Z,12.50
2018-05-27T19:17:28.062Z,13.27
2018-05-27T19:19:54.453Z,12.90
2018-05-27T19:22:20.805Z,14.10
2018-05-27T19:24:47.150Z,13.00
2018-05-27T19:27:15.348Z,11.80
2018-05-27T19:29:41.724Z,13.37
2018-05-27T19:32:08.126Z,13.20
2018-05-27T19:34:35.195Z,10.80
2018-05-27T19:37:01.505Z,12.10
2018-05-27T19:39:27.854Z,11.90
2018-05-27T19:41:54.173Z,13.10
2018-05-27T19:44:20.497Z,12.33
2018-05-27T19:46:46.826Z,10.77
2018-05-27T19:49:13.168Z,11.80
2018-05-27T19:51:39.596Z,13.97
2018-05-27T19:54:05.885Z,10.57
2018-05-27T19:56:33.405Z,11.47
2018-05-27T19:58:59.772Z,14.50
2018-05-27T20:01:26.853Z,9.80
2018-05-27T20:03:53.217Z,14.40
2018-05-27T20:06:19.589Z,29.03
2018-05-27T20:08:46.654Z,24.90
2018-05-27T20:11:13.038Z,14.67
2018-05-27T20:13:39.342Z,16.63
2018-05-27T20:16:05.702Z,15.00
2018-05-27T20:18:32.050Z,18.43
2018-05-27T20:20:58.440Z,16.93
2018-05-27T20:23:24.838Z,23.73
2018-05-27T20:25:52.121Z,19.87
2018-05-27T20:28:18.531Z,15.93
2018-05-27T20:30:45.939Z,11.57
2018-05-27T20:33:13.376Z,12.10
2018-05-27T20:35:39.969Z,12.47
2018-05-27T20:38:07.198Z,14.00
2018-05-27T20:40:33.503Z,14.13
2018-05-27T20:42:59.857Z,13.33
2018-05-27T20:45:26.200Z,18.00
2018-05-27T20:47:53.295Z,14.30
2018-05-27T20:50:19.738Z,14.63
2018-05-27T20:52:46.135Z,13.23
2018-05-27T20:55:13.271Z,16.00
2018-05-27T20:57:39.620Z,13.93
2018-05-27T21:00:06.707Z,14.43
2018-05-27T21:02:33.061Z,17.43
2018-05-27T21:04:59.399Z,15.83
2018-05-27T21:07:25.793Z,32.27
2018-05-27T21:09:52.161Z,19.37
2018-05-27T21:12:18.489Z,21.17
2018-05-27T21:14:44.824Z,21.07
2018-05-27T21:17:11.105Z,34.10
2018-05-27T21:19:37.471Z,21.83
2018-05-27T21:22:03.829Z,28.43
2018-05-27T21:24:30.147Z,31.77
2018-05-27T21:26:56.512Z,31.57
2018-05-27T21:29:23.575Z,41.97
2018-05-27T21:31:50.639Z,32.93
2018-05-27T21:34:16.966Z,23.63
2018-05-27T21:36:43.338Z,36.47
2018-05-27T21:39:09.670Z,21.07
2018-05-27T21:41:36.062Z,29.30
2018-05-27T21:44:02.439Z,51.30
2018-05-27T21:46:28.797Z,25.33
2018-05-27T21:48:55.876Z,20.50
2018-05-27T21:51:22.270Z,33.77
2018-05-27T21:53:48.626Z,27.20
2018-05-27T21:56:14.980Z,23.83
2018-05-27T21:58:41.358Z,23.23
2018-05-27T22:01:07.728Z,35.73
2018-05-27T22:03:34.079Z,44.27
2018-05-27T22:06:00.462Z,42.33
2018-05-27T22:08:26.781Z,48.63
2018-05-27T22:10:53.154Z,45.17
2018-05-27T22:13:19.442Z,40.80
2018-05-27T22:15:45.775Z,30.20
2018-05-27T22:18:12.109Z,25.70
2018-05-27T22:20:38.413Z,24.50
2018-05-27T22:23:04.805Z,20.50
2018-05-27T22:25:31.157Z,18.77
2018-05-27T22:27:57.528Z,18.37
2018-05-27T22:30:23.828Z,20.33
2018-05-27T22:32:50.132Z,19.20
2018-05-27T22:35:17.159Z,24.93
2018-05-27T22:37:44.229Z,18.73
2018-05-27T22:40:10.517Z,19.87
2018-05-27T22:42:36.861Z,19.87
2018-05-27T22:45:03.213Z,24.27
2018-05-27T22:47:30.324Z,20.67
2018-05-27T22:49:56.627Z,21.97
2018-05-27T22:52:22.909Z,20.07
2018-05-27T22:54:49.934Z,23.53
2018-05-27T22:57:16.239Z,25.13
2018-05-27T22:59:42.499Z,23.93
2018-05-27T23:02:08.815Z,24.27
2018-05-27T23:04:35.195Z,24.33
2018-05-27T23:07:02.223Z,23.60
2018-05-27T23:09:28.516Z,26.00
2018-05-27T23:11:54.814Z,25.00
2018-05-27T23:14:21.073Z,28.63
2018-05-27T23:16:47.464Z,24.83
2018-05-27T23:19:14.491Z,25.17
2018-05-27T23:21:40.984Z,24.17
2018-05-27T23:24:07.356Z,22.60
2018-05-27T23:26:33.706Z,21.30
2018-05-27T23:29:00.756Z,23.30
2018-05-27T23:31:27.813Z,22.83
2018-05-27T23:33:54.071Z,23.53
2018-05-27T23:36:20.348Z,23.20
2018-05-27T23:38:48.125Z,22.77
2018-05-27T23:41:15.176Z,21.63
2018-05-27T23:43:42.219Z,23.13
2018-05-27T23:46:09.264Z,20.60
2018-05-27T23:48:35.579Z,20.13
2018-05-27T23:51:01.930Z,18.33
2018-05-27T23:53:28.960Z,18.00
2018-05-27T23:55:55.241Z,19.10
2018-05-27T23:58:21.541Z,19.93
